sensor_id;sensor_type;location;lat;lon;timestamp;pressure;altitude;pressure_sealevel;temperature;humidity
17383;BME280;8809;51.892;8.384;2023-07-28T00:01:16;99475.06;;;17.71;100.00
17383;BME280;8809;51.892;8.384;2023-07-28T00:03:44;99473.31;;;17.75;100.00
17383;BME280;8809;51.892;8.384;2023-07-28T00:06:11;99474.19;;;17.71;100.00
17383;BME280;8809;51.892;8.384;2023-07-28T00:08:40;99459.28;;;17.68;100.00
17383;BME280;8809;51.892;8.384;2023-07-28T00:11:09;99461.94;;;17.67;100.00
17383;BME280;8809;51.892;8.384;2023-07-28T00:13:39;99469.84;;;17.68;100.00
17383;BME280;8809;51.892;8.384;2023-07-28T00:16:08;99461.88;;;17.70;100.00
17383;BME280;8809;51.892;8.384;2023-07-28T00:18:35;99461.94;;;17.67;100.00
17383;BME280;8809;51.892;8.384;2023-07-28T00:21:05;99456.66;;;17.67;100.00
17383;BME280;8809;51.892;8.384;2023-07-28T00:23:32;99454.91;;;17.67;100.00
17383;BME280;8809;51.892;8.384;2023-07-28T00:25:59;99457.53;;;17.67;100.00
17383;BME280;8809;51.892;8.384;2023-07-28T00:28:26;99453.97;;;17.70;100.00
17383;BME280;8809;51.892;8.384;2023-07-28T00:30:54;99462.81;;;17.67;100.00
17383;BME280;8809;51.892;8.384;2023-07-28T00:33:21;99451.38;;;17.64;100.00
17383;BME280;8809;51.892;8.384;2023-07-28T00:35:49;99455.78;;;17.65;100.00
17383;BME280;8809;51.892;8.384;2023-07-28T00:38:17;99450.50;;;17.66;100.00
17383;BME280;8809;51.892;8.384;2023-07-28T00:40:45;99451.38;;;17.67;100.00
17383;BME280;8809;51.892;8.384;2023-07-28T00:43:12;99442.59;;;17.68;100.00
17383;BME280;8809;51.892;8.384;2023-07-28T00:45:39;99440.81;;;17.67;100.00
17383;BME280;8809;51.892;8.384;2023-07-28T00:48:13;99440.78;;;17.70;100.00
17383;BME280;8809;51.892;8.384;2023-07-28T00:50:45;99451.34;;;17.73;100.00
17383;BME280;8809;51.892;8.384;2023-07-28T00:53:13;99446.94;;;17.73;100.00
17383;BME280;8809;51.892;8.384;2023-07-28T00:55:42;99450.47;;;17.71;100.00
17383;BME280;8809;51.892;8.384;2023-07-28T00:58:09;99452.22;;;17.69;100.00
17383;BME280;8809;51.892;8.384;2023-07-28T01:00:36;99448.69;;;17.70;100.00
17383;BME280;8809;51.892;8.384;2023-07-28T01:03:04;99449.56;;;17.75;100.00
17383;BME280;8809;51.892;8.384;2023-07-28T01:05:44;99451.31;;;17.76;100.00
17383;BME280;8809;51.892;8.384;2023-07-28T01:08:20;99446.94;;;17.76;100.00
17383;BME280;8809;51.892;8.384;2023-07-28T01:10:49;99456.59;;;17.74;100.00
17383;BME280;8809;51.892;8.384;2023-07-28T01:13:17;99460.13;;;17.75;100.00
17383;BME280;8809;51.892;8.384;2023-07-28T01:15:44;99458.38;;;17.74;100.00
17383;BME280;8809;51.892;8.384;2023-07-28T01:18:11;99454.84;;;17.76;100.00
17383;BME280;8809;51.892;8.384;2023-07-28T01:20:39;99452.22;;;17.73;100.00
17383;BME280;8809;51.892;8.384;2023-07-28T01:23:18;99458.38;;;17.71;100.00
17383;BME280;8809;51.892;8.384;2023-07-28T01:25:57;99464.53;;;17.70;100.00
17383;BME280;8809;51.892;8.384;2023-07-28T01:28:30;99457.50;;;17.69;100.00
17383;BME280;8809;51.892;8.384;2023-07-28T01:30:57;99461.94;;;17.68;100.00
17383;BME280;8809;51.892;8.384;2023-07-28T01:33:24;99470.69;;;17.69;100.00
17383;BME280;8809;51.892;8.384;2023-07-28T01:35:51;99469.84;;;17.68;100.00
17383;BME280;8809;51.892;8.384;2023-07-28T01:38:19;99467.22;;;17.67;100.00
17383;BME280;8809;51.892;8.384;2023-07-28T01:40:46;99468.09;;;17.66;100.00
17383;BME280;8809;51.892;8.384;2023-07-28T01:43:13;99470.72;;;17.66;100.00
17383;BME280;8809;51.892;8.384;2023-07-28T01:45:42;99472.47;;;17.67;100.00
17383;BME280;8809;51.892;8.384;2023-07-28T01:48:13;99470.72;;;17.66;100.00
17383;BME280;8809;51.892;8.384;2023-07-28T01:50:40;99481.28;;;17.64;100.00
17383;BME280;8809;51.892;8.384;2023-07-28T01:53:07;99467.22;;;17.64;100.00
17383;BME280;8809;51.892;8.384;2023-07-28T01:55:35;99468.94;;;17.62;100.00
17383;BME280;8809;51.892;8.384;2023-07-28T01:58:02;99467.22;;;17.64;100.00
17383;BME280;8809;51.892;8.384;2023-07-28T02:00:29;99467.22;;;17.64;100.00
17383;BME280;8809;51.892;8.384;2023-07-28T02:02:58;99470.72;;;17.64;100.00
17383;BME280;8809;51.892;8.384;2023-07-28T02:05:27;99463.66;;;17.62;100.00
17383;BME280;8809;51.892;8.384;2023-07-28T02:07:55;99467.22;;;17.64;100.00
17383;BME280;8809;51.892;8.384;2023-07-28T02:10:22;99461.94;;;17.62;100.00
17383;BME280;8809;51.892;8.384;2023-07-28T02:12:50;99461.91;;;17.61;100.00
17383;BME280;8809;51.892;8.384;2023-07-28T02:15:17;99459.31;;;17.62;100.00
17383;BME280;8809;51.892;8.384;2023-07-28T02:17:44;99471.59;;;17.65;100.00
17383;BME280;8809;51.892;8.384;2023-07-28T02:20:13;99456.66;;;17.64;100.00
17383;BME280;8809;51.892;8.384;2023-07-28T02:22:41;99469.84;;;17.64;100.00
17383;BME280;8809;51.892;8.384;2023-07-28T02:25:09;99471.56;;;17.62;100.00
17383;BME280;8809;51.892;8.384;2023-07-28T02:27:37;99476.00;;;17.63;100.00
17383;BME280;8809;51.892;8.384;2023-07-28T02:30:06;99478.63;;;17.63;100.00
17383;BME280;8809;51.892;8.384;2023-07-28T02:32:37;99478.63;;;17.63;100.00
17383;BME280;8809;51.892;8.384;2023-07-28T02:35:05;99484.75;;;17.62;100.00
17383;BME280;8809;51.892;8.384;2023-07-28T02:37:33;99488.31;;;17.64;100.00
17383;BME280;8809;51.892;8.384;2023-07-28T02:40:00;99491.81;;;17.63;100.00
17383;BME280;8809;51.892;8.384;2023-07-28T02:42:27;99485.66;;;17.61;100.00
17383;BME280;8809;51.892;8.384;2023-07-28T02:44:54;99490.91;;;17.59;100.00
17383;BME280;8809;51.892;8.384;2023-07-28T02:47:22;99486.56;;;17.58;100.00
17383;BME280;8809;51.892;8.384;2023-07-28T02:49:49;99482.16;;;17.59;100.00
17383;BME280;8809;51.892;8.384;2023-07-28T02:52:16;99485.69;;;17.58;100.00
17383;BME280;8809;51.892;8.384;2023-07-28T02:54:44;99489.16;;;17.60;100.00
17383;BME280;8809;51.892;8.384;2023-07-28T02:57:11;99486.56;;;17.57;100.00
17383;BME280;8809;51.892;8.384;2023-07-28T02:59:38;99486.56;;;17.57;100.00
17383;BME280;8809;51.892;8.384;2023-07-28T03:02:05;99489.19;;;17.58;100.00
17383;BME280;8809;51.892;8.384;2023-07-28T03:04:33;99496.22;;;17.58;100.00
17383;BME280;8809;51.892;8.384;2023-07-28T03:07:00;99494.47;;;17.55;100.00
17383;BME280;8809;51.892;8.384;2023-07-28T03:09:27;99489.19;;;17.57;100.00
17383;BME280;8809;51.892;8.384;2023-07-28T03:11:56;99494.47;;;17.58;100.00
17383;BME280;8809;51.892;8.384;2023-07-28T03:14:23;99505.91;;;17.59;100.00
17383;BME280;8809;51.892;8.384;2023-07-28T03:16:51;99498.88;;;17.58;100.00
17383;BME280;8809;51.892;8.384;2023-07-28T03:19:18;99505.91;;;17.59;100.00
17383;BME280;8809;51.892;8.384;2023-07-28T03:21:45;99501.50;;;17.56;100.00
17383;BME280;8809;51.892;8.384;2023-07-28T03:24:12;99505.03;;;17.58;100.00
17383;BME280;8809;51.892;8.384;2023-07-28T03:26:39;99509.41;;;17.58;100.00
17383;BME280;8809;51.892;8.384;2023-07-28T03:29:08;99505.91;;;17.59;100.00
17383;BME280;8809;51.892;8.384;2023-07-28T03:31:35;99504.16;;;17.56;100.00
17383;BME280;8809;51.892;8.384;2023-07-28T03:34:07;99504.13;;;17.58;100.00
17383;BME280;8809;51.892;8.384;2023-07-28T03:36:35;99509.41;;;17.58;100.00
17383;BME280;8809;51.892;8.384;2023-07-28T03:39:02;99505.91;;;17.57;100.00
17383;BME280;8809;51.892;8.384;2023-07-28T03:41:29;99503.25;;;17.57;100.00
17383;BME280;8809;51.892;8.384;2023-07-28T03:43:56;99506.78;;;17.56;100.00
17383;BME280;8809;51.892;8.384;2023-07-28T03:46:25;99506.78;;;17.58;100.00
17383;BME280;8809;51.892;8.384;2023-07-28T03:48:52;99511.19;;;17.57;100.00
17383;BME280;8809;51.892;8.384;2023-07-28T03:51:19;99510.28;;;17.57;100.00
17383;BME280;8809;51.892;8.384;2023-07-28T03:53:48;99508.50;;;17.60;100.00
17383;BME280;8809;51.892;8.384;2023-07-28T03:56:15;99505.88;;;17.60;100.00
17383;BME280;8809;51.892;8.384;2023-07-28T03:58:42;99513.78;;;17.60;100.00
17383;BME280;8809;51.892;8.384;2023-07-28T04:01:10;99518.19;;;17.60;100.00
17383;BME280;8809;51.892;8.384;2023-07-28T04:03:38;99519.94;;;17.61;100.00
17383;BME280;8809;51.892;8.384;2023-07-28T04:06:09;99514.69;;;17.64;100.00
17383;BME280;8809;51.892;8.384;2023-07-28T04:08:37;99514.69;;;17.64;100.00
17383;BME280;8809;51.892;8.384;2023-07-28T04:11:04;99509.41;;;17.62;100.00
17383;BME280;8809;51.892;8.384;2023-07-28T04:13:33;99511.16;;;17.66;100.00
17383;BME280;8809;51.892;8.384;2023-07-28T04:16:01;99505.91;;;17.66;100.00
17383;BME280;8809;51.892;8.384;2023-07-28T04:18:28;99504.13;;;17.64;100.00
17383;BME280;8809;51.892;8.384;2023-07-28T04:20:56;99515.56;;;17.64;100.00
17383;BME280;8809;51.892;8.384;2023-07-28T04:23:23;99512.88;;;17.69;100.00
17383;BME280;8809;51.892;8.384;2023-07-28T04:25:50;99512.03;;;17.67;100.00
17383;BME280;8809;51.892;8.384;2023-07-28T04:28:20;99516.44;;;17.68;100.00
17383;BME280;8809;51.892;8.384;2023-07-28T04:30:50;99523.47;;;17.66;100.00
17383;BME280;8809;51.892;8.384;2023-07-28T04:33:17;99529.63;;;17.68;100.00
17383;BME280;8809;51.892;8.384;2023-07-28T04:35:44;99529.59;;;17.69;100.00
17383;BME280;8809;51.892;8.384;2023-07-28T04:38:12;99526.13;;;17.67;100.00
17383;BME280;8809;51.892;8.384;2023-07-28T04:40:40;99538.44;;;17.68;100.00
17383;BME280;8809;51.892;8.384;2023-07-28T04:43:07;99539.28;;;17.69;100.00
17383;BME280;8809;51.892;8.384;2023-07-28T04:45:34;99533.13;;;17.70;100.00
17383;BME280;8809;51.892;8.384;2023-07-28T04:48:02;99540.16;;;17.71;100.00
17383;BME280;8809;51.892;8.384;2023-07-28T04:50:29;99542.78;;;17.71;100.00
17383;BME280;8809;51.892;8.384;2023-07-28T04:52:58;99535.75;;;17.73;100.00
17383;BME280;8809;51.892;8.384;2023-07-28T04:55:26;99544.53;;;17.73;100.00
17383;BME280;8809;51.892;8.384;2023-07-28T04:57:53;99539.28;;;17.72;100.00
17383;BME280;8809;51.892;8.384;2023-07-28T05:00:20;99549.81;;;17.72;100.00
17383;BME280;8809;51.892;8.384;2023-07-28T05:02:48;99553.34;;;17.74;100.00
17383;BME280;8809;51.892;8.384;2023-07-28T05:05:15;99542.78;;;17.74;100.00
17383;BME280;8809;51.892;8.384;2023-07-28T05:07:42;99541.03;;;17.76;100.00
17383;BME280;8809;51.892;8.384;2023-07-28T05:10:10;99539.25;;;17.78;100.00
17383;BME280;8809;51.892;8.384;2023-07-28T05:12:38;99538.34;;;17.80;100.00
17383;BME280;8809;51.892;8.384;2023-07-28T05:15:06;99544.50;;;17.81;100.00
17383;BME280;8809;51.892;8.384;2023-07-28T05:17:36;99545.38;;;17.82;100.00
17383;BME280;8809;51.892;8.384;2023-07-28T05:20:03;99544.50;;;17.84;100.00
17383;BME280;8809;51.892;8.384;2023-07-28T05:22:30;99549.78;;;17.84;100.00
17383;BME280;8809;51.892;8.384;2023-07-28T05:24:58;99548.00;;;17.85;100.00
17383;BME280;8809;51.892;8.384;2023-07-28T05:27:25;99545.38;;;17.86;100.00
17383;BME280;8809;51.892;8.384;2023-07-28T05:29:53;99548.00;;;17.86;100.00
17383;BME280;8809;51.892;8.384;2023-07-28T05:32:20;99556.78;;;17.88;100.00
17383;BME280;8809;51.892;8.384;2023-07-28T05:34:47;99558.56;;;17.88;100.00
17383;BME280;8809;51.892;8.384;2023-07-28T05:37:14;99556.78;;;17.90;100.00
17383;BME280;8809;51.892;8.384;2023-07-28T05:39:42;99557.66;;;17.90;100.00
17383;BME280;8809;51.892;8.384;2023-07-28T05:42:10;99565.56;;;17.93;100.00
17383;BME280;8809;51.892;8.384;2023-07-28T05:44:37;99564.69;;;17.91;100.00
17383;BME280;8809;51.892;8.384;2023-07-28T05:47:06;99558.53;;;17.92;100.00
17383;BME280;8809;51.892;8.384;2023-07-28T05:49:33;99568.19;;;17.92;100.00
17383;BME280;8809;51.892;8.384;2023-07-28T05:52:00;99565.56;;;17.95;100.00
17383;BME280;8809;51.892;8.384;2023-07-28T05:54:27;99570.84;;;17.95;100.00
17383;BME280;8809;51.892;8.384;2023-07-28T05:56:54;99570.84;;;17.96;100.00
17383;BME280;8809;51.892;8.384;2023-07-28T05:59:22;99570.81;;;17.99;100.00
17383;BME280;8809;51.892;8.384;2023-07-28T06:01:49;99578.72;;;18.01;100.00
17383;BME280;8809;51.892;8.384;2023-07-28T06:04:17;99570.78;;;18.02;100.00
17383;BME280;8809;51.892;8.384;2023-07-28T06:06:44;99575.19;;;18.03;100.00
17383;BME280;8809;51.892;8.384;2023-07-28T06:09:11;99578.72;;;18.05;100.00
17383;BME280;8809;51.892;8.384;2023-07-28T06:11:38;99577.81;;;18.06;100.00
17383;BME280;8809;51.892;8.384;2023-07-28T06:14:05;99591.00;;;18.08;100.00
17383;BME280;8809;51.892;8.384;2023-07-28T06:16:32;99586.59;;;18.08;100.00
17383;BME280;8809;51.892;8.384;2023-07-28T06:18:59;99590.09;;;18.10;100.00
17383;BME280;8809;51.892;8.384;2023-07-28T06:21:28;99603.28;;;18.13;100.00
17383;BME280;8809;51.892;8.384;2023-07-28T06:23:55;99601.53;;;18.12;100.00
17383;BME280;8809;51.892;8.384;2023-07-28T06:26:22;99606.81;;;18.15;100.00
17383;BME280;8809;51.892;8.384;2023-07-28T06:28:49;99598.84;;;18.18;100.00
17383;BME280;8809;51.892;8.384;2023-07-28T06:31:17;99603.25;;;18.20;100.00
17383;BME280;8809;51.892;8.384;2023-07-28T06:33:44;99611.16;;;18.23;100.00
17383;BME280;8809;51.892;8.384;2023-07-28T06:36:12;99611.16;;;18.26;100.00
17383;BME280;8809;51.892;8.384;2023-07-28T06:38:40;99613.75;;;18.29;100.00
17383;BME280;8809;51.892;8.384;2023-07-28T06:41:09;99612.88;;;18.27;100.00
17383;BME280;8809;51.892;8.384;2023-07-28T06:43:36;99618.16;;;18.33;100.00
17383;BME280;8809;51.892;8.384;2023-07-28T06:46:04;99622.56;;;18.31;100.00
17383;BME280;8809;51.892;8.384;2023-07-28T06:48:31;99627.84;;;18.32;100.00
17383;BME280;8809;51.892;8.384;2023-07-28T06:50:58;99627.84;;;18.35;100.00
17383;BME280;8809;51.892;8.384;2023-07-28T06:53:25;99634.84;;;18.38;100.00
17383;BME280;8809;51.892;8.384;2023-07-28T06:55:54;99629.56;;;18.39;100.00
17383;BME280;8809;51.892;8.384;2023-07-28T06:58:22;99631.31;;;18.45;100.00
17383;BME280;8809;51.892;8.384;2023-07-28T07:00:49;99632.16;;;18.47;100.00
17383;BME280;8809;51.892;8.384;2023-07-28T07:03:16;99632.13;;;18.53;100.00
17383;BME280;8809;51.892;8.384;2023-07-28T07:05:43;99640.91;;;18.55;100.00
17383;BME280;8809;51.892;8.384;2023-07-28T07:08:10;99648.81;;;18.57;100.00
17383;BME280;8809;51.892;8.384;2023-07-28T07:10:38;99643.56;;;18.58;100.00
17383;BME280;8809;51.892;8.384;2023-07-28T07:13:07;99647.97;;;18.62;100.00
17383;BME280;8809;51.892;8.384;2023-07-28T07:15:34;99657.63;;;18.63;100.00
17383;BME280;8809;51.892;8.384;2023-07-28T07:18:02;99658.53;;;18.61;100.00
17383;BME280;8809;51.892;8.384;2023-07-28T07:20:29;99660.28;;;18.62;100.00
17383;BME280;8809;51.892;8.384;2023-07-28T07:22:56;99661.16;;;18.62;100.00
17383;BME280;8809;51.892;8.384;2023-07-28T07:25:23;99658.47;;;18.67;100.00
17383;BME280;8809;51.892;8.384;2023-07-28T07:27:51;99659.34;;;18.70;100.00
17383;BME280;8809;51.892;8.384;2023-07-28T07:30:22;99661.97;;;18.72;100.00
17383;BME280;8809;51.892;8.384;2023-07-28T07:32:50;99664.63;;;18.73;100.00
17383;BME280;8809;51.892;8.384;2023-07-28T07:35:17;99665.47;;;18.77;100.00
17383;BME280;8809;51.892;8.384;2023-07-28T07:37:44;99665.47;;;18.78;100.00
17383;BME280;8809;51.892;8.384;2023-07-28T07:40:11;99679.53;;;18.83;100.00
17383;BME280;8809;51.892;8.384;2023-07-28T07:42:41;99668.91;;;18.86;100.00
17383;BME280;8809;51.892;8.384;2023-07-28T07:45:10;99680.34;;;18.90;100.00
17383;BME280;8809;51.892;8.384;2023-07-28T07:47:39;99675.91;;;18.94;100.00
17383;BME280;8809;51.892;8.384;2023-07-28T07:50:07;99683.81;;;18.98;100.00
17383;BME280;8809;51.892;8.384;2023-07-28T07:52:36;99679.41;;;19.00;100.00
17383;BME280;8809;51.892;8.384;2023-07-28T07:55:03;99687.28;;;19.03;100.00
17383;BME280;8809;51.892;8.384;2023-07-28T07:57:35;99681.97;;;19.11;100.00
17383;BME280;8809;51.892;8.384;2023-07-28T08:00:02;99686.38;;;19.12;100.00
17383;BME280;8809;51.892;8.384;2023-07-28T08:02:31;99688.97;;;19.19;100.00
17383;BME280;8809;51.892;8.384;2023-07-28T08:04:59;99695.94;;;19.26;100.00
17383;BME280;8809;51.892;8.384;2023-07-28T08:07:27;99688.81;;;19.33;100.00
17383;BME280;8809;51.892;8.384;2023-07-28T08:09:54;99688.78;;;19.39;100.00
17383;BME280;8809;51.892;8.384;2023-07-28T08:12:21;99696.66;;;19.45;100.00
17383;BME280;8809;51.892;8.384;2023-07-28T08:14:48;99694.91;;;19.50;100.00
17383;BME280;8809;51.892;8.384;2023-07-28T08:17:17;99699.31;;;19.47;100.00
17383;BME280;8809;51.892;8.384;2023-07-28T08:19:44;99696.63;;;19.51;100.00
17383;BME280;8809;51.892;8.384;2023-07-28T08:22:13;99695.72;;;19.58;100.00
17383;BME280;8809;51.892;8.384;2023-07-28T08:24:40;99694.75;;;19.62;100.00
17383;BME280;8809;51.892;8.384;2023-07-28T08:27:07;99691.16;;;19.71;100.00
17383;BME280;8809;51.892;8.384;2023-07-28T08:29:35;99696.41;;;19.76;100.00
17383;BME280;8809;51.892;8.384;2023-07-28T08:32:03;99694.59;;;19.81;100.00
17383;BME280;8809;51.892;8.384;2023-07-28T08:34:30;99701.63;;;19.85;100.00
17383;BME280;8809;51.892;8.384;2023-07-28T08:36:58;99703.38;;;19.84;100.00
17383;BME280;8809;51.892;8.384;2023-07-28T08:39:26;99709.53;;;19.86;100.00
17383;BME280;8809;51.892;8.384;2023-07-28T08:41:58;99710.38;;;19.90;100.00
17383;BME280;8809;51.892;8.384;2023-07-28T08:44:25;99714.78;;;19.91;100.00
17383;BME280;8809;51.892;8.384;2023-07-28T08:46:53;99721.81;;;19.93;100.00
17383;BME280;8809;51.892;8.384;2023-07-28T08:49:21;99714.75;;;19.95;100.00
17383;BME280;8809;51.892;8.384;2023-07-28T08:51:52;99720.84;;;20.00;100.00
17383;BME280;8809;51.892;8.384;2023-07-28T08:54:23;99728.84;;;19.99;100.00
17383;BME280;8809;51.892;8.384;2023-07-28T08:56:52;99728.78;;;20.00;100.00
17383;BME280;8809;51.892;8.384;2023-07-28T08:59:21;99734.91;;;20.07;100.00
17383;BME280;8809;51.892;8.384;2023-07-28T09:01:55;99729.63;;;20.09;100.00
17383;BME280;8809;51.892;8.384;2023-07-28T09:04:24;99742.88;;;20.07;100.00
17383;BME280;8809;51.892;8.384;2023-07-28T09:06:51;99742.88;;;20.07;100.00
17383;BME280;8809;51.892;8.384;2023-07-28T09:09:20;99741.97;;;20.08;100.00
17383;BME280;8809;51.892;8.384;2023-07-28T09:11:49;99748.09;;;20.12;100.00
17383;BME280;8809;51.892;8.384;2023-07-28T09:14:20;99745.34;;;20.21;100.00
17383;BME280;8809;51.892;8.384;2023-07-28T09:16:49;99744.41;;;20.28;100.00
17383;BME280;8809;51.892;8.384;2023-07-28T09:19:16;99742.56;;;20.38;100.00
17383;BME280;8809;51.892;8.384;2023-07-28T09:21:44;99736.16;;;20.54;100.00
17383;BME280;8809;51.892;8.384;2023-07-28T09:24:13;99745.69;;;20.67;100.00
17383;BME280;8809;51.892;8.384;2023-07-28T09:26:46;99748.41;;;20.65;100.00
17383;BME280;8809;51.892;8.384;2023-07-28T09:29:16;99745.69;;;20.68;100.00
17383;BME280;8809;51.892;8.384;2023-07-28T09:31:45;99758.13;;;20.65;100.00
17383;BME280;8809;51.892;8.384;2023-07-28T09:34:22;99758.94;;;20.67;100.00
17383;BME280;8809;51.892;8.384;2023-07-28T09:36:53;99764.25;;;20.67;100.00
17383;BME280;8809;51.892;8.384;2023-07-28T09:39:20;99760.75;;;20.65;100.00
17383;BME280;8809;51.892;8.384;2023-07-28T09:41:48;99762.53;;;20.64;100.00
17383;BME280;8809;51.892;8.384;2023-07-28T09:44:16;99767.00;;;20.61;100.00
17383;BME280;8809;51.892;8.384;2023-07-28T09:46:50;99774.06;;;20.59;100.00
17383;BME280;8809;51.892;8.384;2023-07-28T09:49:20;99765.28;;;20.57;100.00
17383;BME280;8809;51.892;8.384;2023-07-28T09:51:54;99766.22;;;20.53;100.00
17383;BME280;8809;51.892;8.384;2023-07-28T09:54:25;99768.88;;;20.51;100.00
17383;BME280;8809;51.892;8.384;2023-07-28T09:56:56;99768.88;;;20.50;100.00
17383;BME280;8809;51.892;8.384;2023-07-28T09:59:28;99778.63;;;20.48;100.00
17383;BME280;8809;51.892;8.384;2023-07-28T10:01:58;99785.72;;;20.46;100.00
17383;BME280;8809;51.892;8.384;2023-07-28T10:04:29;99782.13;;;20.50;100.00
17383;BME280;8809;51.892;8.384;2023-07-28T10:06:57;99785.72;;;20.47;100.00
17383;BME280;8809;51.892;8.384;2023-07-28T10:09:26;99790.09;;;20.50;100.00
17383;BME280;8809;51.892;8.384;2023-07-28T10:11:54;99783.88;;;20.51;100.00
17383;BME280;8809;51.892;8.384;2023-07-28T10:14:28;99786.53;;;20.51;100.00
17383;BME280;8809;51.892;8.384;2023-07-28T10:16:59;99789.19;;;20.51;100.00
17383;BME280;8809;51.892;8.384;2023-07-28T10:19:27;99793.63;;;20.50;100.00
17383;BME280;8809;51.892;8.384;2023-07-28T10:22:02;99789.16;;;20.54;100.00
17383;BME280;8809;51.892;8.384;2023-07-28T10:24:52;99798.81;;;20.59;100.00
17383;BME280;8809;51.892;8.384;2023-07-28T10:27:29;99796.13;;;20.61;100.00
17383;BME280;8809;51.892;8.384;2023-07-28T10:29:57;99797.00;;;20.64;100.00
17383;BME280;8809;51.892;8.384;2023-07-28T10:32:37;99803.13;;;20.68;100.00
17383;BME280;8809;51.892;8.384;2023-07-28T10:35:07;99800.44;;;20.69;100.00
17383;BME280;8809;51.892;8.384;2023-07-28T10:37:35;99804.78;;;20.77;100.00
17383;BME280;8809;51.892;8.384;2023-07-28T10:40:21;99802.94;;;20.83;100.00
17383;BME280;8809;51.892;8.384;2023-07-28T10:42:49;99794.03;;;20.89;100.00
17383;BME280;8809;51.892;8.384;2023-07-28T10:45:17;99799.19;;;20.99;100.00
17383;BME280;8809;51.892;8.384;2023-07-28T10:47:46;99804.47;;;21.02;100.00
17383;BME280;8809;51.892;8.384;2023-07-28T10:50:15;99807.84;;;21.14;100.00
17383;BME280;8809;51.892;8.384;2023-07-28T10:52:43;99804.09;;;21.30;100.00
17383;BME280;8809;51.892;8.384;2023-07-28T10:55:13;99807.47;;;21.42;100.00
17383;BME280;8809;51.892;8.384;2023-07-28T10:57:41;99805.47;;;21.55;100.00
17383;BME280;8809;51.892;8.384;2023-07-28T11:00:10;99806.44;;;21.51;100.00
17383;BME280;8809;51.892;8.384;2023-07-28T11:02:40;99805.44;;;21.57;100.00
17383;BME280;8809;51.892;8.384;2023-07-28T11:05:12;99797.34;;;21.66;100.00
17383;BME280;8809;51.892;8.384;2023-07-28T11:07:41;99805.28;;;21.67;100.00
17383;BME280;8809;51.892;8.384;2023-07-28T11:10:09;99797.28;;;21.70;100.00
17383;BME280;8809;51.892;8.384;2023-07-28T11:12:40;99796.28;;;21.76;100.00
17383;BME280;8809;51.892;8.384;2023-07-28T11:15:09;99799.69;;;21.82;100.00
17383;BME280;8809;51.892;8.384;2023-07-28T11:17:38;99801.41;;;21.87;100.00
17383;BME280;8809;51.892;8.384;2023-07-28T11:20:16;99795.97;;;21.94;100.00
17383;BME280;8809;51.892;8.384;2023-07-28T11:22:44;99796.81;;;21.99;100.00
17383;BME280;8809;51.892;8.384;2023-07-28T11:25:11;99792.22;;;22.09;100.00
17383;BME280;8809;51.892;8.384;2023-07-28T11:27:39;99798.97;;;22.27;100.00
17383;BME280;8809;51.892;8.384;2023-07-28T11:30:07;99799.69;;;22.35;100.00
17383;BME280;8809;51.892;8.384;2023-07-28T11:32:36;99799.44;;;22.48;100.00
17383;BME280;8809;51.892;8.384;2023-07-28T11:35:04;99801.78;;;22.64;100.00
17383;BME280;8809;51.892;8.384;2023-07-28T11:37:34;99798.06;;;22.71;100.00
17383;BME280;8809;51.892;8.384;2023-07-28T11:40:04;99799.75;;;22.78;100.00
17383;BME280;8809;51.892;8.384;2023-07-28T11:42:34;99799.81;;;22.75;100.00
17383;BME280;8809;51.892;8.384;2023-07-28T11:45:03;99806.97;;;22.70;100.00
17383;BME280;8809;51.892;8.384;2023-07-28T11:47:30;99806.28;;;22.60;100.00
17383;BME280;8809;51.892;8.384;2023-07-28T11:49:58;99811.72;;;22.54;100.00
17383;BME280;8809;51.892;8.384;2023-07-28T11:52:30;99805.66;;;22.47;100.00
17383;BME280;8809;51.892;8.384;2023-07-28T11:54:59;99810.13;;;22.45;100.00
17383;BME280;8809;51.892;8.384;2023-07-28T11:57:28;99805.72;;;22.44;100.00
17383;BME280;8809;51.892;8.384;2023-07-28T11:59:56;99803.09;;;22.41;100.00
17383;BME280;8809;51.892;8.384;2023-07-28T12:02:28;99803.19;;;22.38;100.00
17383;BME280;8809;51.892;8.384;2023-07-28T12:04:55;99802.34;;;22.35;100.00
17383;BME280;8809;51.892;8.384;2023-07-28T12:07:30;99810.38;;;22.30;100.00
17383;BME280;8809;51.892;8.384;2023-07-28T12:10:04;99798.03;;;22.29;100.00
17383;BME280;8809;51.892;8.384;2023-07-28T12:12:39;99806.75;;;22.37;100.00
17383;BME280;8809;51.892;8.384;2023-07-28T12:15:21;99801.28;;;22.43;100.00
17383;BME280;8809;51.892;8.384;2023-07-28T12:18:07;99810.84;;;22.53;100.00
17383;BME280;8809;51.892;8.384;2023-07-28T12:20:37;99804.38;;;22.67;100.00
17383;BME280;8809;51.892;8.384;2023-07-28T12:23:05;99808.22;;;22.97;100.00
17383;BME280;8809;51.892;8.384;2023-07-28T12:25:34;99808.56;;;23.21;100.00
17383;BME280;8809;51.892;8.384;2023-07-28T12:28:02;99807.06;;;23.47;100.00
17383;BME280;8809;51.892;8.384;2023-07-28T12:30:29;99817.19;;;23.71;100.00
17383;BME280;8809;51.892;8.384;2023-07-28T12:32:57;99813.38;;;23.81;100.00
17383;BME280;8809;51.892;8.384;2023-07-28T12:35:25;99814.63;;;24.02;100.00
17383;BME280;8809;51.892;8.384;2023-07-28T12:37:52;99815.06;;;24.19;100.00
17383;BME280;8809;51.892;8.384;2023-07-28T12:40:19;99816.38;;;24.37;100.00
17383;BME280;8809;51.892;8.384;2023-07-28T12:42:48;99809.31;;;24.36;100.00
17383;BME280;8809;51.892;8.384;2023-07-28T12:45:15;99817.44;;;24.31;100.00
17383;BME280;8809;51.892;8.384;2023-07-28T12:47:43;99801.53;;;24.28;100.00
17383;BME280;8809;51.892;8.384;2023-07-28T12:50:10;99812.47;;;24.16;100.00
17383;BME280;8809;51.892;8.384;2023-07-28T12:52:38;99811.00;;;24.04;100.00
17383;BME280;8809;51.892;8.384;2023-07-28T12:55:05;99806.00;;;23.92;100.00
17383;BME280;8809;51.892;8.384;2023-07-28T12:57:33;99811.63;;;23.80;100.00
17383;BME280;8809;51.892;8.384;2023-07-28T13:00:01;99806.59;;;23.68;100.00
17383;BME280;8809;51.892;8.384;2023-07-28T13:02:34;99814.78;;;23.60;100.00
17383;BME280;8809;51.892;8.384;2023-07-28T13:05:05;99810.50;;;23.53;100.00
17383;BME280;8809;51.892;8.384;2023-07-28T13:07:32;99812.47;;;23.44;100.00